Time;durP1;ratioP1;P1;durP2;ratioP2;P2;SDS_P1;SDS_P2;PMS_P1;PMS_P2;Temp;Humidity;BMP_temperature;BMP_pressure;BME280_temperature;BME280_humidity;BME280_pressure;Samples;Min_cycle;Max_cycle;Signal;HPM_P1;HPM_P2
2021/09/10 00:01:10;;;;;;;10.23;4.38;;;21.00;96.10;;;;;;5073967;28;20545;-73
2021/09/10 00:03:35;;;;;;;10.02;4.75;;;20.90;96.10;;;;;;5073896;28;20107;-72
2021/09/10 00:06:01;;;;;;;10.30;4.63;;;20.90;96.20;;;;;;5073822;28;20050;-73
2021/09/10 00:08:27;;;;;;;10.10;4.85;;;20.90;96.30;;;;;;5073114;28;20399;-74
2021/09/10 00:10:53;;;;;;;10.70;5.30;;;20.90;95.90;;;;;;5073535;28;20536;-72
2021/09/10 00:13:19;;;;;;;10.48;5.28;;;20.90;96.10;;;;;;5073483;28;20028;-74
2021/09/10 00:19:06;;;;;;;9.20;4.50;;;20.90;96.50;;;;;;5074059;28;20059;-73
2021/09/10 00:21:32;;;;;;;8.80;4.72;;;20.90;96.30;;;;;;5073450;28;20052;-74
2021/09/10 00:23:58;;;;;;;10.38;5.45;;;20.80;96.30;;;;;;5073640;28;20115;-72
2021/09/10 00:26:23;;;;;;;9.43;5.00;;;20.70;96.50;;;;;;5073249;28;20024;-72
2021/09/10 00:28:49;;;;;;;14.15;5.45;;;20.80;96.50;;;;;;5072032;28;20025;-72
2021/09/10 00:31:15;;;;;;;13.60;5.32;;;20.80;96.40;;;;;;5073301;28;20478;-72
2021/09/10 00:33:41;;;;;;;11.13;5.78;;;20.70;96.40;;;;;;5073253;28;20077;-73
2021/09/10 00:36:06;;;;;;;12.82;5.75;;;20.70;96.30;;;;;;5073201;28;20033;-73
2021/09/10 00:38:32;;;;;;;11.45;6.07;;;20.80;96.00;;;;;;5073241;28;20024;-74
2021/09/10 00:40:58;;;;;;;11.93;6.40;;;20.80;96.20;;;;;;5073168;28;20024;-75
2021/09/10 00:43:24;;;;;;;10.15;5.32;;;20.80;96.20;;;;;;5073172;28;20371;-75
2021/09/10 00:45:50;;;;;;;12.95;5.53;;;20.70;96.30;;;;;;5073008;28;20036;-72
2021/09/10 00:48:19;;;;;;;11.20;5.32;;;20.70;96.10;;;;;;5073152;28;20028;-73
2021/09/10 00:50:46;;;;;;;10.88;5.70;;;20.60;96.30;;;;;;5073428;28;20427;-73
2021/09/10 00:53:12;;;;;;;16.38;6.45;;;20.60;96.50;;;;;;5073119;28;20024;-72
2021/09/10 00:55:40;;;;;;;10.32;5.90;;;20.50;96.60;;;;;;5073362;28;20052;-73
2021/09/10 00:58:06;;;;;;;12.20;5.82;;;20.50;96.50;;;;;;5072983;28;20100;-72
2021/09/10 01:00:32;;;;;;;11.77;6.47;;;20.40;97.10;;;;;;5073031;28;20103;-73
2021/09/10 01:02:58;;;;;;;12.57;6.30;;;20.30;97.10;;;;;;5072982;28;20025;-72
2021/09/10 01:05:24;;;;;;;11.15;5.90;;;20.40;96.90;;;;;;5077101;28;20024;-73
2021/09/10 01:07:51;;;;;;;11.82;6.25;;;20.30;97.00;;;;;;5076992;28;20472;-72
2021/09/10 01:10:18;;;;;;;11.68;5.80;;;20.30;96.90;;;;;;5076972;28;20039;-73
2021/09/10 01:12:46;;;;;;;12.40;6.50;;;20.20;96.90;;;;;;5076935;28;20433;-72
2021/09/10 01:15:12;;;;;;;12.10;6.60;;;20.10;97.40;;;;;;5076920;28;20020;-75
2021/09/10 01:17:38;;;;;;;16.55;6.97;;;20.20;97.20;;;;;;5077113;28;20027;-72
2021/09/10 01:20:06;;;;;;;10.27;5.80;;;20.10;97.20;;;;;;5076787;28;20016;-72
2021/09/10 01:22:32;;;;;;;11.95;5.82;;;20.20;97.20;;;;;;5076683;28;20121;-72
2021/09/10 01:25:14;;;;;;;13.57;7.00;;;20.10;97.00;;;;;;5076698;28;20071;-73
2021/09/10 01:28:00;;;;;;;12.05;6.32;;;20.20;97.00;;;;;;5077006;28;20028;-74
2021/09/10 01:30:28;;;;;;;15.60;6.22;;;20.10;97.00;;;;;;5076927;28;20463;-72
2021/09/10 01:32:55;;;;;;;9.25;5.97;;;20.00;97.20;;;;;;5076509;28;20499;-71
2021/09/10 01:35:21;;;;;;;13.50;6.25;;;20.00;97.40;;;;;;5076482;28;20033;-73
2021/09/10 01:37:47;;;;;;;14.27;6.90;;;20.00;97.30;;;;;;5076426;28;20044;-72
2021/09/10 01:40:14;;;;;;;13.82;6.80;;;20.10;97.30;;;;;;5076599;28;20056;-73
2021/09/10 01:42:40;;;;;;;11.00;6.38;;;20.10;97.10;;;;;;5076872;28;20017;-72
2021/09/10 01:45:08;;;;;;;14.60;6.13;;;20.00;97.00;;;;;;5076201;28;20024;-72
2021/09/10 01:47:35;;;;;;;10.48;5.85;;;20.00;97.40;;;;;;5076717;28;20378;-73
2021/09/10 01:50:04;;;;;;;13.88;6.50;;;19.90;97.60;;;;;;5076218;28;20096;-71
2021/09/10 01:52:29;;;;;;;9.98;5.88;;;20.00;97.30;;;;;;5076204;28;20023;-73
2021/09/10 01:54:55;;;;;;;11.48;6.22;;;20.10;97.30;;;;;;5076070;28;20390;-72
2021/09/10 01:57:20;;;;;;;13.90;7.50;;;20.00;96.90;;;;;;5076603;28;20021;-72
2021/09/10 01:59:46;;;;;;;14.55;6.57;;;20.10;97.10;;;;;;5076004;28;20138;-73
2021/09/10 02:02:12;;;;;;;9.20;5.22;;;20.10;97.00;;;;;;5076247;28;20379;-72
2021/09/10 02:04:38;;;;;;;12.05;5.75;;;20.10;96.80;;;;;;5075975;28;20103;-72
2021/09/10 02:07:07;;;;;;;11.93;6.22;;;20.20;96.50;;;;;;5075621;28;20052;-73
2021/09/10 02:09:33;;;;;;;12.13;6.55;;;20.10;96.70;;;;;;5074665;28;20112;-72
2021/09/10 02:12:00;;;;;;;13.65;6.82;;;20.10;96.60;;;;;;5075174;28;20119;-73
2021/09/10 02:14:26;;;;;;;12.10;6.05;;;20.00;97.00;;;;;;5074234;28;20025;-72
2021/09/10 02:16:52;;;;;;;14.77;7.57;;;20.00;97.30;;;;;;5074852;28;20017;-72
2021/09/10 02:19:18;;;;;;;12.25;7.18;;;19.90;97.30;;;;;;5074583;28;20079;-74
2021/09/10 02:21:44;;;;;;;15.85;7.47;;;20.00;96.90;;;;;;5074510;28;20028;-73
2021/09/10 02:24:09;;;;;;;13.27;6.60;;;20.00;96.90;;;;;;5074483;28;20028;-72
2021/09/10 02:26:36;;;;;;;10.43;6.18;;;20.00;97.00;;;;;;5074357;28;20476;-72
2021/09/10 02:29:01;;;;;;;12.63;6.60;;;20.00;97.20;;;;;;5074428;28;20025;-72
2021/09/10 02:31:27;;;;;;;12.13;6.50;;;19.90;97.30;;;;;;5074418;28;20024;-72
2021/09/10 02:33:53;;;;;;;12.25;6.57;;;19.80;97.40;;;;;;5074656;28;20493;-74
2021/09/10 02:36:18;;;;;;;14.38;6.80;;;19.70;97.80;;;;;;5074572;28;20056;-74
2021/09/10 02:38:44;;;;;;;14.13;7.03;;;19.60;98.00;;;;;;5074523;28;20028;-72
2021/09/10 02:41:10;;;;;;;12.90;6.22;;;19.60;98.20;;;;;;5074243;28;20107;-72
2021/09/10 02:43:36;;;;;;;12.50;7.20;;;19.60;98.20;;;;;;5074728;28;20025;-71
2021/09/10 02:46:01;;;;;;;11.38;7.10;;;19.60;98.20;;;;;;5074082;28;20560;-72
2021/09/10 02:48:27;;;;;;;13.90;6.47;;;19.60;98.30;;;;;;5074354;28;20470;-73
2021/09/10 02:50:52;;;;;;;16.10;6.70;;;19.70;98.40;;;;;;5074110;28;20025;-72
2021/09/10 02:53:18;;;;;;;15.35;6.85;;;19.70;98.00;;;;;;5074049;28;20035;-72
2021/09/10 02:55:44;;;;;;;12.32;6.05;;;19.80;98.10;;;;;;5073994;28;20025;-72
2021/09/10 02:58:09;;;;;;;12.85;6.03;;;19.80;98.10;;;;;;5073885;28;20028;-72
2021/09/10 03:00:35;;;;;;;12.77;6.45;;;19.90;97.60;;;;;;5072615;28;20217;-73
2021/09/10 03:03:01;;;;;;;11.80;6.97;;;19.90;97.30;;;;;;5073819;28;20035;-74
2021/09/10 03:05:28;;;;;;;16.63;6.90;;;19.90;97.30;;;;;;5074007;28;20111;-72
2021/09/10 03:07:54;;;;;;;10.40;6.65;;;19.90;97.50;;;;;;5030100;28;1253391;-73
2021/09/10 03:10:20;;;;;;;13.55;6.90;;;20.00;97.40;;;;;;5074701;28;20101;-72
2021/09/10 03:12:45;;;;;;;18.52;6.90;;;20.00;97.40;;;;;;5075217;28;20017;-73
2021/09/10 03:15:13;;;;;;;13.40;7.07;;;20.00;97.90;;;;;;5074867;28;20029;-72
2021/09/10 03:17:39;;;;;;;13.27;6.75;;;20.00;97.80;;;;;;5074587;28;20024;-72
2021/09/10 03:20:05;;;;;;;14.05;7.30;;;20.00;97.80;;;;;;5074741;28;20035;-74
2021/09/10 03:22:31;;;;;;;12.55;6.32;;;20.00;98.10;;;;;;5074757;28;20045;-74
2021/09/10 03:24:57;;;;;;;12.13;6.97;;;20.00;98.20;;;;;;5074368;28;20117;-71
2021/09/10 03:27:22;;;;;;;13.27;6.50;;;20.10;98.00;;;;;;5073795;28;20055;-71
2021/09/10 03:29:48;;;;;;;12.40;6.50;;;20.00;98.30;;;;;;5074287;28;20028;-72
2021/09/10 03:32:14;;;;;;;11.85;6.32;;;20.10;98.40;;;;;;5074267;28;20486;-72
2021/09/10 03:34:40;;;;;;;12.68;6.80;;;20.10;98.40;;;;;;5074485;28;20099;-72
2021/09/10 03:37:06;;;;;;;11.00;6.85;;;20.00;98.70;;;;;;5074199;28;20024;-71
2021/09/10 03:39:32;;;;;;;12.40;6.63;;;20.00;99.10;;;;;;5074396;28;20020;-73
2021/09/10 03:41:58;;;;;;;17.27;7.68;;;20.00;99.60;;;;;;5074558;28;20025;-75
2021/09/10 03:44:23;;;;;;;14.38;7.40;;;20.00;99.40;;;;;;5074307;28;20060;-72
2021/09/10 03:46:49;;;;;;;15.70;8.07;;;20.00;99.60;;;;;;5073887;28;20025;-72
2021/09/10 03:49:15;;;;;;;15.30;6.95;;;20.00;99.90;;;;;;5074143;28;20032;-72
2021/09/10 03:51:40;;;;;;;12.65;7.15;;;20.00;99.90;;;;;;5073843;28;20048;-72
2021/09/10 03:54:06;;;;;;;12.02;6.20;;;20.00;99.90;;;;;;5073812;28;20021;-72
2021/09/10 03:56:31;;;;;;;12.98;7.18;;;20.00;99.90;;;;;;5073773;28;20487;-73
2021/09/10 03:58:57;;;;;;;16.20;7.30;;;19.90;99.90;;;;;;5073684;28;20039;-73
2021/09/10 04:01:23;;;;;;;13.95;7.35;;;19.90;99.90;;;;;;5073731;28;20066;-72
2021/09/10 04:03:49;;;;;;;13.68;7.53;;;19.80;99.90;;;;;;5073665;28;20398;-73
2021/09/10 04:06:15;;;;;;;13.77;7.70;;;19.80;99.90;;;;;;5073791;28;20021;-73
2021/09/10 04:08:41;;;;;;;13.57;7.75;;;19.70;99.90;;;;;;5073193;28;20044;-73
2021/09/10 04:11:07;;;;;;;11.10;6.40;;;19.80;99.90;;;;;;5073570;28;20486;-72
2021/09/10 04:13:33;;;;;;;15.27;7.35;;;19.70;99.90;;;;;;5073492;28;20074;-73
2021/09/10 04:15:58;;;;;;;12.10;7.25;;;19.70;99.90;;;;;;5073568;28;20436;-74
2021/09/10 04:18:24;;;;;;;13.52;7.40;;;19.70;99.90;;;;;;5073466;28;20096;-71
2021/09/10 04:20:49;;;;;;;9.82;6.90;;;19.80;99.90;;;;;;5073386;28;20086;-74
2021/09/10 04:23:15;;;;;;;11.40;7.32;;;19.80;99.90;;;;;;5072133;28;20024;-72
2021/09/10 04:25:41;;;;;;;13.45;7.32;;;19.90;99.90;;;;;;5073297;28;20032;-73
2021/09/10 04:28:07;;;;;;;15.48;7.18;;;19.80;99.90;;;;;;5073911;28;20020;-72
2021/09/10 04:30:33;;;;;;;9.50;6.38;;;19.80;99.90;;;;;;5073318;28;20024;-72
2021/09/10 04:32:59;;;;;;;11.98;7.15;;;19.90;99.90;;;;;;5073568;28;20054;-72
2021/09/10 04:35:24;;;;;;;12.93;6.43;;;19.80;99.90;;;;;;5073254;28;20025;-73
2021/09/10 04:37:50;;;;;;;10.43;5.88;;;19.80;99.90;;;;;;5073115;28;20031;-71
2021/09/10 04:40:18;;;;;;;10.50;6.13;;;19.80;99.90;;;;;;5073186;28;20399;-72
2021/09/10 04:42:44;;;;;;;13.43;6.88;;;19.70;99.90;;;;;;5073172;28;20016;-72
2021/09/10 04:45:10;;;;;;;14.52;6.45;;;19.70;99.90;;;;;;5073128;28;20036;-73
2021/09/10 04:47:35;;;;;;;10.73;6.18;;;19.70;99.90;;;;;;5073427;28;20478;-72
2021/09/10 04:50:01;;;;;;;10.48;5.88;;;19.80;99.90;;;;;;5073103;28;20025;-73
2021/09/10 04:52:27;;;;;;;9.68;5.57;;;19.80;99.90;;;;;;5073098;28;20023;-74
2021/09/10 04:54:53;;;;;;;11.82;5.32;;;19.80;99.90;;;;;;5073034;28;20482;-72
2021/09/10 04:57:19;;;;;;;11.68;6.05;;;19.80;99.90;;;;;;5073025;28;20495;-72
2021/09/10 04:59:44;;;;;;;8.85;4.85;;;19.80;99.90;;;;;;5072960;28;20031;-74
2021/09/10 05:02:10;;;;;;;11.23;6.28;;;19.80;99.90;;;;;;5073269;28;20017;-74
2021/09/10 05:04:35;;;;;;;10.25;5.80;;;19.70;99.90;;;;;;5073227;28;20028;-72
2021/09/10 05:07:01;;;;;;;10.50;5.88;;;19.70;99.90;;;;;;5072647;28;20087;-73
2021/09/10 05:09:27;;;;;;;11.00;6.07;;;19.80;99.90;;;;;;5073476;28;20028;-72
2021/09/10 05:11:52;;;;;;;10.60;6.25;;;19.80;99.90;;;;;;5073176;28;20070;-72
2021/09/10 05:14:18;;;;;;;15.35;6.18;;;19.80;99.90;;;;;;5073097;28;20089;-74
2021/09/10 05:16:44;;;;;;;10.52;6.03;;;19.90;99.90;;;;;;5072866;28;20021;-73
2021/09/10 05:19:12;;;;;;;11.23;5.88;;;19.90;99.90;;;;;;5072816;28;20107;-73
2021/09/10 05:21:38;;;;;;;12.95;6.22;;;19.90;99.90;;;;;;5072827;28;20025;-74
2021/09/10 05:24:04;;;;;;;9.68;6.00;;;19.90;99.90;;;;;;5072753;28;20517;-73
2021/09/10 05:26:31;;;;;;;12.00;6.20;;;19.90;99.90;;;;;;5072670;28;20031;-72
2021/09/10 05:28:56;;;;;;;10.60;6.10;;;19.90;99.90;;;;;;5072739;28;20017;-71
2021/09/10 05:31:22;;;;;;;11.85;6.50;;;19.80;99.90;;;;;;5072658;28;20386;-73
2021/09/10 05:33:48;;;;;;;9.60;6.60;;;19.80;99.90;;;;;;5072741;28;20067;-71
2021/09/10 05:36:14;;;;;;;13.02;6.95;;;19.80;99.90;;;;;;5072931;28;20097;-73
2021/09/10 05:38:39;;;;;;;13.88;6.53;;;19.90;99.90;;;;;;5072858;28;20031;-71
2021/09/10 05:41:05;;;;;;;12.10;6.07;;;19.80;99.90;;;;;;5072851;28;20478;-72
2021/09/10 05:43:31;;;;;;;12.18;6.00;;;19.80;99.90;;;;;;5072575;28;20054;-74
2021/09/10 05:45:56;;;;;;;12.18;5.95;;;19.90;99.90;;;;;;5072479;28;20067;-73
2021/09/10 05:48:22;;;;;;;10.73;5.75;;;19.90;99.90;;;;;;5073094;28;20370;-73
2021/09/10 05:50:49;;;;;;;9.80;5.90;;;19.90;99.90;;;;;;5075255;28;20082;-73
2021/09/10 05:53:16;;;;;;;10.07;5.53;;;19.90;99.90;;;;;;5074884;28;20025;-72
2021/09/10 05:55:43;;;;;;;11.30;5.20;;;19.80;99.90;;;;;;5076412;28;20478;-73
2021/09/10 05:58:09;;;;;;;10.18;5.20;;;19.80;99.90;;;;;;5074696;28;20025;-72
2021/09/10 06:00:36;;;;;;;9.52;4.90;;;19.80;99.90;;;;;;5076075;28;20031;-74
2021/09/10 06:03:03;;;;;;;8.88;5.32;;;19.70;99.90;;;;;;5075994;28;20055;-71
2021/09/10 06:05:29;;;;;;;9.75;4.85;;;19.80;99.90;;;;;;5075947;28;20520;-73
2021/09/10 06:07:54;;;;;;;8.90;5.40;;;19.80;99.90;;;;;;5075787;28;20072;-73
2021/09/10 06:10:20;;;;;;;7.78;4.80;;;19.80;99.90;;;;;;5075899;28;20020;-73
2021/09/10 06:12:46;;;;;;;9.65;5.30;;;19.80;99.90;;;;;;5076090;28;20051;-73
2021/09/10 06:15:13;;;;;;;8.20;5.00;;;19.80;99.90;;;;;;5075831;28;20027;-72
2021/09/10 06:17:39;;;;;;;10.05;5.75;;;19.80;99.90;;;;;;5075758;28;20033;-73
2021/09/10 06:20:06;;;;;;;9.80;5.03;;;19.80;99.90;;;;;;5075706;28;20047;-74
2021/09/10 06:22:32;;;;;;;10.02;5.88;;;19.80;99.90;;;;;;5075703;28;20040;-72
2021/09/10 06:24:59;;;;;;;8.23;4.70;;;19.90;99.90;;;;;;5075658;28;20031;-72
2021/09/10 06:27:24;;;;;;;8.77;4.82;;;19.80;99.90;;;;;;5075479;28;20025;-72
2021/09/10 06:29:50;;;;;;;7.82;4.68;;;19.90;99.90;;;;;;5075532;28;20424;-75
2021/09/10 06:32:16;;;;;;;7.72;4.40;;;19.90;99.90;;;;;;5075502;28;20027;-73
2021/09/10 06:34:42;;;;;;;9.13;5.07;;;19.90;99.90;;;;;;5074147;28;20021;-73
2021/09/10 06:37:08;;;;;;;6.70;4.10;;;19.80;99.90;;;;;;5075406;28;20028;-73
2021/09/10 06:39:34;;;;;;;8.70;4.90;;;19.90;99.90;;;;;;5075358;28;20392;-72
2021/09/10 06:42:00;;;;;;;8.55;4.80;;;19.80;99.90;;;;;;5075294;28;20021;-72
2021/09/10 06:44:26;;;;;;;7.45;4.25;;;19.70;99.90;;;;;;5075266;28;20448;-73
2021/09/10 06:46:52;;;;;;;9.88;4.63;;;19.70;99.90;;;;;;5075658;28;20387;-70
2021/09/10 06:49:17;;;;;;;10.65;5.82;;;19.70;99.90;;;;;;5075157;28;20031;-71
2021/09/10 06:51:43;;;;;;;8.13;4.60;;;19.70;99.90;;;;;;5075623;28;20370;-70
2021/09/10 06:54:09;;;;;;;9.63;5.03;;;19.60;99.90;;;;;;5075028;28;20504;-72
2021/09/10 06:56:35;;;;;;;7.88;4.70;;;19.70;99.90;;;;;;5075590;28;20028;-72
2021/09/10 06:59:00;;;;;;;8.30;4.50;;;19.70;99.90;;;;;;5074869;28;20565;-70
2021/09/10 07:01:26;;;;;;;7.07;4.60;;;19.70;99.90;;;;;;5073755;28;20037;-71
2021/09/10 07:03:52;;;;;;;8.63;5.20;;;19.70;99.90;;;;;;5075405;28;20123;-72
2021/09/10 07:06:18;;;;;;;9.05;4.75;;;19.70;99.90;;;;;;5074782;28;20021;-71
2021/09/10 07:08:44;;;;;;;8.85;4.50;;;19.70;99.90;;;;;;5074410;28;20047;-73
2021/09/10 07:11:10;;;;;;;7.55;4.10;;;19.70;99.90;;;;;;5074737;28;20096;-75
2021/09/10 07:13:36;;;;;;;8.80;4.93;;;19.70;99.90;;;;;;5073376;28;20021;-71
2021/09/10 07:16:02;;;;;;;9.48;4.47;;;19.70;99.90;;;;;;5074628;28;20028;-75
2021/09/10 07:18:28;;;;;;;7.68;4.40;;;19.80;99.90;;;;;;5074883;28;20047;-76
2021/09/10 07:20:53;;;;;;;8.85;4.47;;;19.80;99.90;;;;;;5074764;28;20471;-73
2021/09/10 07:23:19;;;;;;;7.53;4.20;;;19.90;99.90;;;;;;5074486;28;20027;-75
2021/09/10 07:25:45;;;;;;;7.38;4.05;;;20.00;99.90;;;;;;5074652;28;20029;-74
2021/09/10 07:28:10;;;;;;;10.27;4.85;;;20.10;99.90;;;;;;5074658;28;20052;-73
2021/09/10 07:30:36;;;;;;;6.60;3.97;;;20.10;99.90;;;;;;5074329;28;20100;-74
2021/09/10 07:33:02;;;;;;;6.40;4.30;;;20.00;99.90;;;;;;5074538;28;20099;-73
2021/09/10 07:35:28;;;;;;;7.00;4.45;;;20.10;99.90;;;;;;5074212;28;20032;-72
2021/09/10 07:37:54;;;;;;;4.72;3.85;;;20.20;99.90;;;;;;5074132;28;20425;-74
2021/09/10 07:40:20;;;;;;;7.30;4.15;;;20.30;99.90;;;;;;5072764;28;20029;-74
2021/09/10 07:42:46;;;;;;;6.40;3.55;;;20.30;99.90;;;;;;5074361;28;20078;-74
2021/09/10 07:45:12;;;;;;;5.57;3.88;;;20.60;99.90;;;;;;5074033;28;20028;-76
2021/09/10 07:47:39;;;;;;;6.28;3.95;;;20.90;99.90;;;;;;5074556;28;20025;-78
2021/09/10 07:50:05;;;;;;;7.57;3.83;;;21.00;99.90;;;;;;5072632;28;20078;-74
2021/09/10 07:52:31;;;;;;;8.38;4.03;;;20.80;99.90;;;;;;5074160;28;20023;-72
2021/09/10 07:54:56;;;;;;;9.52;4.25;;;20.70;99.90;;;;;;5073824;28;20021;-71
2021/09/10 07:57:23;;;;;;;6.20;3.88;;;20.70;99.90;;;;;;5074031;28;20028;-72
2021/09/10 07:59:55;;;;;;;6.60;3.90;;;20.60;99.90;;;;;;5073757;28;20060;-71
2021/09/10 08:02:21;;;;;;;7.45;4.07;;;20.70;99.90;;;;;;5074027;28;20549;-70
2021/09/10 08:04:47;;;;;;;5.50;3.70;;;20.80;99.90;;;;;;5073695;28;20532;-70
2021/09/10 08:07:12;;;;;;;5.60;3.60;;;20.70;99.90;;;;;;5073608;28;20041;-70
2021/09/10 08:09:38;;;;;;;7.07;4.05;;;20.70;99.90;;;;;;5073884;28;20123;-72
2021/09/10 08:12:04;;;;;;;7.30;3.97;;;20.60;99.90;;;;;;5071956;28;20017;-72
2021/09/10 08:14:30;;;;;;;10.98;5.00;;;20.70;99.90;;;;;;5073530;28;20395;-71
2021/09/10 08:16:55;;;;;;;7.85;3.83;;;20.70;99.90;;;;;;5073730;28;20031;-70
2021/09/10 08:19:21;;;;;;;6.22;4.07;;;20.70;99.90;;;;;;5073712;28;20075;-70
2021/09/10 08:21:46;;;;;;;7.45;3.83;;;20.70;99.90;;;;;;5074032;28;20112;-72
2021/09/10 08:24:12;;;;;;;4.78;3.58;;;20.90;99.90;;;;;;5073388;28;20024;-72
2021/09/10 08:26:38;;;;;;;8.40;4.00;;;21.10;99.90;;;;;;5073610;28;20021;-71
2021/09/10 08:29:04;;;;;;;7.30;4.03;;;21.30;99.80;;;;;;5073344;28;20085;-70
2021/09/10 08:31:29;;;;;;;10.40;4.70;;;21.30;99.90;;;;;;5073353;28;20055;-70
2021/09/10 08:33:55;;;;;;;7.63;3.80;;;21.30;99.90;;;;;;5073286;28;20035;-70
2021/09/10 08:36:22;;;;;;;6.00;3.50;;;21.40;98.70;;;;;;5073291;28;20028;-72
2021/09/10 08:38:48;;;;;;;8.40;4.28;;;21.40;99.60;;;;;;5073211;28;20047;-70
2021/09/10 08:41:18;;;;;;;5.55;3.55;;;21.40;99.20;;;;;;5073186;28;20016;-73
2021/09/10 08:43:47;;;;;;;5.57;3.17;;;21.50;99.00;;;;;;5073252;28;20431;-72
2021/09/10 08:46:12;;;;;;;5.90;3.60;;;21.60;98.60;;;;;;5073045;28;20051;-73
2021/09/10 08:48:38;;;;;;;5.90;3.58;;;21.60;98.30;;;;;;5073506;28;20164;-71
2021/09/10 08:51:04;;;;;;;4.82;3.53;;;21.60;97.40;;;;;;5073137;28;20421;-70
2021/09/10 08:53:29;;;;;;;6.68;3.42;;;21.50;97.40;;;;;;5073052;28;20051;-74
2021/09/10 08:55:55;;;;;;;4.93;3.17;;;21.50;97.50;;;;;;5073083;28;20028;-71
2021/09/10 08:58:20;;;;;;;4.53;3.40;;;21.60;96.90;;;;;;5072995;28;20025;-71
2021/09/10 09:00:46;;;;;;;5.10;3.17;;;21.70;96.80;;;;;;5073331;28;20021;-73
2021/09/10 09:03:12;;;;;;;7.38;3.60;;;21.70;96.60;;;;;;5073025;28;20028;-71
2021/09/10 09:05:39;;;;;;;5.97;3.80;;;21.70;97.80;;;;;;5072958;28;20021;-71
2021/09/10 09:08:10;;;;;;;8.50;3.20;;;21.60;97.40;;;;;;5072771;28;20036;-71
2021/09/10 09:10:51;;;;;;;6.03;3.40;;;21.60;96.50;;;;;;5073163;28;20104;-72
2021/09/10 09:13:17;;;;;;;3.85;2.67;;;21.50;97.20;;;;;;5073161;28;20024;-72
2021/09/10 09:15:43;;;;;;;3.65;2.90;;;21.60;96.90;;;;;;5073179;28;20021;-72
2021/09/10 09:18:09;;;;;;;5.15;2.80;;;21.70;96.00;;;;;;5072835;28;20441;-73
2021/09/10 09:20:35;;;;;;;3.03;2.22;;;21.80;96.20;;;;;;5072776;28;20479;-74
2021/09/10 09:23:01;;;;;;;3.85;2.28;;;23.00;92.80;;;;;;5073342;28;20040;-73
2021/09/10 09:25:53;;;;;;;5.97;2.05;;;23.70;90.50;;;;;;5074967;28;20493;-73
2021/09/10 09:28:28;;;;;;;2.55;1.75;;;23.30;92.20;;;;;;5073722;28;20044;-73
2021/09/10 09:31:02;;;;;;;2.38;1.80;;;22.80;91.50;;;;;;5076956;28;20036;-73
2021/09/10 09:33:30;;;;;;;2.75;1.75;;;22.80;91.50;;;;;;5076583;28;20024;-70
2021/09/10 09:35:57;;;;;;;2.10;1.90;;;22.60;91.30;;;;;;5076561;28;20024;-71
2021/09/10 09:38:26;;;;;;;3.13;2.03;;;22.30;91.80;;;;;;5075195;28;20051;-71
2021/09/10 09:41:05;;;;;;;3.08;2.00;;;22.50;92.20;;;;;;5076490;28;20024;-70
2021/09/10 09:43:41;;;;;;;4.77;2.17;;;22.70;92.00;;;;;;5076453;28;20032;-73
2021/09/10 09:46:33;;;;;;;2.22;1.77;;;22.80;90.50;;;;;;5074968;28;20551;-74
2021/09/10 09:49:08;;;;;;;3.03;2.05;;;23.40;89.80;;;;;;5072716;28;20033;-71
2021/09/10 09:51:34;;;;;;;4.53;1.90;;;23.70;86.70;;;;;;5076587;28;20016;-73
2021/09/10 09:54:01;;;;;;;2.88;2.17;;;23.60;87.60;;;;;;5074962;28;20028;-72
2021/09/10 09:56:28;;;;;;;3.33;2.05;;;23.80;86.50;;;;;;5076170;28;20028;-73
2021/09/10 09:58:55;;;;;;;2.42;2.00;;;23.70;84.90;;;;;;5076052;28;20027;-71
2021/09/10 10:01:21;;;;;;;2.65;2.00;;;23.50;86.50;;;;;;5076098;28;20031;-74
2021/09/10 10:03:47;;;;;;;3.70;2.20;;;23.30;87.30;;;;;;5076030;28;20028;-71
2021/09/10 10:06:21;;;;;;;4.40;2.53;;;23.40;88.10;;;;;;5075990;28;20025;-71
2021/09/10 10:08:54;;;;;;;4.80;2.22;;;23.20;90.50;;;;;;5075641;28;20044;-71
2021/09/10 10:11:43;;;;;;;4.60;2.30;;;23.00;90.90;;;;;;5076210;28;20024;-73
2021/09/10 10:14:15;;;;;;;2.22;1.70;;;22.70;90.00;;;;;;5065295;28;20422;-72
2021/09/10 10:16:48;;;;;;;3.10;1.50;;;22.50;90.90;;;;;;5075886;28;20020;-73
2021/09/10 10:19:20;;;;;;;3.33;1.58;;;22.30;90.20;;;;;;5076100;28;20033;-73
2021/09/10 10:21:53;;;;;;;3.00;1.70;;;22.30;89.60;;;;;;5076007;28;20501;-73
2021/09/10 10:24:37;;;;;;;4.20;1.58;;;22.30;90.50;;;;;;5075694;28;20390;-72
2021/09/10 10:27:43;;;;;;;3.35;1.67;;;22.40;89.60;;;;;;5075532;28;20036;-72
2021/09/10 10:30:15;;;;;;;3.13;1.80;;;22.40;91.00;;;;;;5075859;28;20081;-70
2021/09/10 10:32:43;;;;;;;2.95;1.70;;;22.60;89.30;;;;;;5075523;28;20138;-71
2021/09/10 10:35:25;;;;;;;2.25;1.73;;;23.00;89.80;;;;;;5075150;28;20596;-73
2021/09/10 10:38:03;;;;;;;5.03;2.30;;;23.30;87.00;;;;;;5075644;28;20481;-73
2021/09/10 10:40:32;;;;;;;3.80;2.15;;;23.40;86.50;;;;;;5075642;28;20382;-73
2021/09/10 10:43:00;;;;;;;3.10;2.13;;;23.20;87.90;;;;;;5073984;28;20032;-73
2021/09/10 10:45:40;;;;;;;4.10;2.38;;;23.40;87.20;;;;;;5075184;28;20095;-71
2021/09/10 10:48:34;;;;;;;2.72;2.10;;;23.50;85.40;;;;;;5075708;28;20421;-72
2021/09/10 10:51:04;;;;;;;4.25;2.33;;;23.40;87.10;;;;;;5075419;28;20024;-70
2021/09/10 10:53:53;;;;;;;2.90;1.80;;;23.30;87.70;;;;;;5075360;28;20048;-72
2021/09/10 10:56:21;;;;;;;2.40;2.00;;;23.20;85.80;;;;;;5064625;28;20563;-73
2021/09/10 10:59:17;;;;;;;4.22;2.30;;;23.20;83.90;;;;;;5075257;28;20078;-72
2021/09/10 11:02:21;;;;;;;3.40;1.80;;;23.10;83.60;;;;;;5073614;28;20031;-69
2021/09/10 11:05:00;;;;;;;2.20;1.90;;;23.30;85.20;;;;;;5075419;28;20390;-71
2021/09/10 11:07:27;;;;;;;3.75;2.15;;;23.40;83.90;;;;;;5074341;28;20048;-72
2021/09/10 11:09:56;;;;;;;2.53;1.92;;;23.40;83.50;;;;;;5074806;28;20032;-73
2021/09/10 11:12:22;;;;;;;2.45;1.73;;;23.50;82.50;;;;;;5074766;28;20016;-70
2021/09/10 11:14:48;;;;;;;2.55;1.92;;;23.60;83.20;;;;;;5074693;28;20082;-73
2021/09/10 11:17:14;;;;;;;3.15;1.95;;;23.60;81.10;;;;;;5074362;28;20028;-71
2021/09/10 11:19:48;;;;;;;3.35;2.10;;;23.50;83.20;;;;;;5074854;28;20025;-73
2021/09/10 11:22:15;;;;;;;4.05;1.95;;;23.20;80.00;;;;;;5074769;28;20020;-71
2021/09/10 11:24:42;;;;;;;2.65;2.20;;;22.80;79.60;;;;;;5074470;28;20029;-71
2021/09/10 11:27:28;;;;;;;4.07;2.15;;;22.60;80.60;;;;;;5074920;28;20048;-71
2021/09/10 11:30:02;;;;;;;5.05;2.28;;;22.50;81.20;;;;;;5074414;28;20444;-71
2021/09/10 11:32:28;;;;;;;3.25;2.20;;;22.50;81.30;;;;;;5074647;28;20013;-71
2021/09/10 11:34:54;;;;;;;2.83;2.13;;;22.50;79.70;;;;;;5074229;28;20520;-70
2021/09/10 11:37:38;;;;;;;2.85;2.22;;;22.60;79.50;;;;;;5074450;28;20028;-71
2021/09/10 11:40:04;;;;;;;3.88;2.10;;;22.80;80.00;;;;;;5074451;28;20032;-70
2021/09/10 11:42:40;;;;;;;4.40;2.10;;;23.10;80.30;;;;;;5074699;28;20031;-71
2021/09/10 11:45:13;;;;;;;4.30;2.15;;;23.20;78.20;;;;;;5074620;28;20028;-72
2021/09/10 11:47:40;;;;;;;4.45;2.60;;;23.30;76.60;;;;;;5073582;28;20363;-71
2021/09/10 11:50:09;;;;;;;3.85;2.22;;;23.30;77.10;;;;;;5074022;28;20028;-71
2021/09/10 11:52:37;;;;;;;3.83;2.30;;;23.40;78.50;;;;;;5073969;28;20504;-73
2021/09/10 11:55:14;;;;;;;2.83;1.98;;;23.30;76.10;;;;;;5073885;28;20103;-72
2021/09/10 11:57:41;;;;;;;3.70;2.20;;;23.20;75.10;;;;;;5074155;28;20024;-71
2021/09/10 12:00:09;;;;;;;2.97;2.20;;;23.10;75.60;;;;;;5073771;28;20048;-71
2021/09/10 12:02:35;;;;;;;2.92;2.33;;;23.10;75.80;;;;;;5073774;28;20012;-71
2021/09/10 12:05:04;;;;;;;3.75;2.00;;;23.10;76.30;;;;;;5073707;28;20029;-71
2021/09/10 12:07:31;;;;;;;3.42;2.13;;;23.10;77.70;;;;;;5072123;28;20451;-71
2021/09/10 12:09:57;;;;;;;4.07;2.38;;;23.20;77.10;;;;;;5073963;28;20054;-70
2021/09/10 12:12:25;;;;;;;3.05;2.10;;;23.30;75.80;;;;;;5073608;28;20062;-72
2021/09/10 12:14:51;;;;;;;3.15;2.10;;;23.30;75.40;;;;;;5073561;28;20141;-73
2021/09/10 12:17:36;;;;;;;4.93;1.98;;;23.40;75.40;;;;;;5073509;28;20028;-71
2021/09/10 12:20:15;;;;;;;2.40;1.83;;;23.30;77.40;;;;;;5073862;28;20102;-72
2021/09/10 12:22:49;;;;;;;3.33;1.70;;;23.30;76.20;;;;;;5073969;28;20478;-73
2021/09/10 12:25:24;;;;;;;4.53;2.15;;;23.30;76.50;;;;;;5073981;28;20509;-71
2021/09/10 12:28:03;;;;;;;3.13;2.10;;;23.30;77.20;;;;;;5073901;28;20033;-71
2021/09/10 12:30:31;;;;;;;4.28;2.35;;;23.30;76.40;;;;;;5073981;28;20074;-71
2021/09/10 12:32:57;;;;;;;3.60;2.35;;;23.30;77.30;;;;;;5073351;28;20017;-71
2021/09/10 12:35:24;;;;;;;6.03;2.78;;;23.20;78.50;;;;;;5073298;28;20013;-70
2021/09/10 12:37:58;;;;;;;5.28;2.42;;;23.30;80.10;;;;;;5073602;28;20032;-70
2021/09/10 12:40:27;;;;;;;4.63;2.58;;;23.40;79.70;;;;;;5073251;28;20030;-71
2021/09/10 12:42:54;;;;;;;4.67;2.73;;;23.40;77.90;;;;;;5073841;28;20446;-71
2021/09/10 12:45:19;;;;;;;5.55;2.90;;;23.40;77.80;;;;;;5073206;28;20033;-71
2021/09/10 12:47:46;;;;;;;4.25;2.60;;;23.50;76.60;;;;;;5073116;28;20020;-72
2021/09/10 12:50:12;;;;;;;3.63;2.53;;;23.50;75.60;;;;;;5073183;28;20024;-72